Leavenworth, KS

2:41 PM CDT on September 30, 2016 (GMT -0500)
Weatherby Lake Westside | | Change Station

Elev 909 ft 39.23 °N, 94.70 °W | Updated 4 seconds ago

Partly Cloudy
Partly Cloudy
74.5 °F
Feels Like 77 °F
N
4.0
Wind Variable Wind from NNE
Gusts 6.9 mph

Today
High -- | Low -- °F
--% Chance of Precip.
Yesterday
High -- | Low -- °F
Precip. -- in
Pressure 30.16 in
Visibility 10.0 miles
Clouds Few 2500 ft
Few 25000 ft
Heat Index 77 °F
Dew Point 51 °F
Humidity 44%
Rainfall in
Snow Depth Not available.
7:15 AM 7:02 PM
Waning Crescent, 0% visible
METAR KMCI 301853Z 36012KT 10SM FEW025 FEW250 23/08 A3017 RMK AO2 SLP211 T02280083
Pressure 30.16 in
Visibility 10.0 miles
Clouds Few 2500 ft
Few 25000 ft
Heat Index 77 °F
Dew Point 51 °F
Humidity 44%
Rainfall in
Snow Depth Not available.
7:15 AM 7:02 PM
Waning Crescent, 0% visible
METAR KMCI 301853Z 36012KT 10SM FEW025 FEW250 23/08 A3017 RMK AO2 SLP211 T02280083

10-Day Weather Forecast

Almanac

Astronomy

Sep. 30, 2016 Rise Set
Actual Time
Civil Twilight
Nautical Twilight
Astronomical Twilight
Moon
Length of Visible Light
Length of Day
Tomorrow will be .
, % of the Moon is Illuminated

Today's Extremes

State Highs State Lows

Community

WunderPhotos

Upload Photos

1,942,762 photos uploaded!

WunderBlog® & News

Nearby

Air Quality

  Air Quality AQ Index Pollutant
Not available.

Snow Depth

Station Depth Elevation

Earthquake Activity

City Distance Mag. Time & Date
Minimum magnitude displayed is 2.5.

Coastal Water Temperatures

Place Temperature

Stations

Nearby Weather Stations

Station Location Temp. Windchill Dew Point Humidity Wind Precip. Elev Updated Type
                   

Watches & Warnings

There are currently no watches in effect.